Time;durP1;ratioP1;P1;durP2;ratioP2;P2;SDS_P1;SDS_P2;PMS_P1;PMS_P2;Temp;Humidity;BMP_temperature;BMP_pressure;BME280_temperature;BME280_humidity;BME280_pressure;Samples;Min_cycle;Max_cycle;Signal;HPM_P1;HPM_P2
2023/11/16 00:01:27;;;;;;;11.25;2.60;;;9.60;99.90;;;;;;5084158;28;20049;-81
2023/11/16 00:03:54;;;;;;;10.10;1.77;;;9.60;99.90;;;;;;5081701;28;20045;-83
2023/11/16 00:06:21;;;;;;;10.63;1.60;;;9.60;99.90;;;;;;5078790;28;20054;-83
2023/11/16 00:08:48;;;;;;;7.88;2.08;;;9.60;99.90;;;;;;5078568;28;20063;-82
2023/11/16 00:11:16;;;;;;;10.13;1.75;;;9.60;99.90;;;;;;5082658;28;20052;-82
2023/11/16 00:13:44;;;;;;;9.90;2.10;;;9.60;99.90;;;;;;5074025;28;20048;-82
2023/11/16 00:16:12;;;;;;;9.75;1.90;;;9.60;99.90;;;;;;5081427;28;20053;-82
2023/11/16 00:18:41;;;;;;;9.23;2.00;;;9.60;99.90;;;;;;5075170;28;20045;-80
2023/11/16 00:21:08;;;;;;;10.43;1.83;;;9.50;99.90;;;;;;5078012;28;20045;-82
2023/11/16 00:23:35;;;;;;;5.97;1.85;;;9.50;99.90;;;;;;5077015;28;20155;-82
2023/11/16 00:26:02;;;;;;;10.02;1.77;;;9.50;99.90;;;;;;5085128;28;20055;-80
2023/11/16 00:28:29;;;;;;;8.23;1.90;;;9.50;99.90;;;;;;5082937;28;20060;-82
2023/11/16 00:30:56;;;;;;;10.27;1.92;;;9.50;99.90;;;;;;5081828;28;20056;-82
2023/11/16 00:33:23;;;;;;;9.93;1.88;;;9.40;99.90;;;;;;5076851;28;20332;-82
2023/11/16 00:35:51;;;;;;;8.20;1.60;;;9.40;99.90;;;;;;5075142;28;20482;-81
2023/11/16 00:38:18;;;;;;;6.82;1.50;;;9.40;99.90;;;;;;5075300;28;20048;-82
2023/11/16 00:40:46;;;;;;;13.60;2.03;;;9.30;99.90;;;;;;5081018;28;20083;-82
2023/11/16 00:43:13;;;;;;;10.43;2.15;;;9.30;99.90;;;;;;5079076;28;20108;-82
2023/11/16 00:45:41;;;;;;;8.43;1.88;;;9.30;99.90;;;;;;5080109;28;20052;-82
2023/11/16 00:48:09;;;;;;;10.80;1.67;;;9.30;99.90;;;;;;5082174;28;20045;-83
2023/11/16 00:50:36;;;;;;;12.68;2.05;;;9.20;99.90;;;;;;5076820;28;20045;-80
2023/11/16 00:53:03;;;;;;;10.77;2.08;;;9.20;99.90;;;;;;5077829;28;20052;-81
2023/11/16 00:55:31;;;;;;;8.82;1.55;;;9.20;99.90;;;;;;5077845;28;20049;-82
2023/11/16 00:57:58;;;;;;;10.07;1.77;;;9.20;99.90;;;;;;5082441;28;20048;-82
2023/11/16 01:00:28;;;;;;;10.30;1.88;;;9.10;99.90;;;;;;5081587;28;20074;-82
2023/11/16 01:02:56;;;;;;;11.63;2.33;;;9.10;99.90;;;;;;5079609;28;20067;-82
2023/11/16 01:05:24;;;;;;;6.90;1.77;;;9.00;99.90;;;;;;5078269;28;20055;-81
2023/11/16 01:07:51;;;;;;;16.05;1.98;;;9.00;99.90;;;;;;5079846;28;20048;-81
2023/11/16 01:10:24;;;;;;;7.80;2.05;;;9.00;99.90;;;;;;5083340;28;20060;-82
2023/11/16 01:12:51;;;;;;;9.23;2.08;;;9.00;99.90;;;;;;5075071;28;20116;-82
2023/11/16 01:15:20;;;;;;;12.88;1.80;;;9.00;99.90;;;;;;5081093;28;20056;-82
2023/11/16 01:17:48;;;;;;;11.55;1.63;;;8.90;99.90;;;;;;5074522;28;20073;-82
2023/11/16 01:20:18;;;;;;;9.57;1.92;;;8.90;99.90;;;;;;5076574;28;20045;-82
2023/11/16 01:23:00;;;;;;;8.60;2.08;;;8.90;99.90;;;;;;5082668;28;20044;-82
2023/11/16 01:25:30;;;;;;;11.68;1.90;;;8.80;99.90;;;;;;5082266;28;20048;-82
2023/11/16 01:27:57;;;;;;;7.63;1.85;;;8.80;99.90;;;;;;5079571;28;20092;-82
2023/11/16 01:30:25;;;;;;;12.38;2.03;;;8.80;99.90;;;;;;5080100;28;20052;-79
2023/11/16 01:32:52;;;;;;;5.95;2.13;;;8.80;99.90;;;;;;5076975;28;20128;-80
2023/11/16 01:35:21;;;;;;;8.18;1.85;;;8.90;99.90;;;;;;5075843;28;20122;-82
2023/11/16 01:37:49;;;;;;;7.47;2.17;;;8.90;99.90;;;;;;5081856;28;20066;-82
2023/11/16 01:40:16;;;;;;;16.83;2.28;;;8.90;99.90;;;;;;5082883;28;20051;-80
2023/11/16 01:42:43;;;;;;;8.93;1.95;;;8.90;99.90;;;;;;5073266;28;20049;-82
2023/11/16 01:45:31;;;;;;;8.88;2.10;;;8.90;99.90;;;;;;5077632;28;20076;-82
2023/11/16 01:48:06;;;;;;;6.20;1.48;;;8.90;99.90;;;;;;5072760;28;20404;-82
2023/11/16 01:50:38;;;;;;;7.25;2.38;;;8.90;99.90;;;;;;5075089;28;20055;-82
2023/11/16 01:53:10;;;;;;;9.95;1.75;;;8.90;99.90;;;;;;5081379;28;20044;-82
2023/11/16 01:55:41;;;;;;;9.30;2.00;;;9.00;99.90;;;;;;5079630;28;20052;-81
2023/11/16 01:58:09;;;;;;;4.78;2.05;;;9.00;99.90;;;;;;5075732;28;20043;-81
2023/11/16 02:00:37;;;;;;;11.20;1.77;;;9.00;99.90;;;;;;5071808;28;20049;-80
2023/11/16 02:03:05;;;;;;;8.40;1.77;;;8.90;99.90;;;;;;5076640;28;20049;-81
2023/11/16 02:05:34;;;;;;;9.35;2.65;;;8.90;99.90;;;;;;5079067;28;20052;-81
2023/11/16 02:08:04;;;;;;;11.32;1.83;;;8.90;99.90;;;;;;5080917;28;20139;-80
2023/11/16 02:10:31;;;;;;;6.82;1.90;;;8.90;99.90;;;;;;5074666;28;20048;-81
2023/11/16 02:13:05;;;;;;;10.35;2.22;;;8.90;99.90;;;;;;5077335;28;20067;-82
2023/11/16 02:15:32;;;;;;;9.80;1.98;;;8.80;99.90;;;;;;5075539;28;20158;-81
2023/11/16 02:17:59;;;;;;;8.32;1.98;;;8.80;99.90;;;;;;5074272;28;20060;-82
2023/11/16 02:20:28;;;;;;;14.88;2.50;;;8.80;99.90;;;;;;5081230;28;20070;-80
2023/11/16 02:22:55;;;;;;;11.52;2.72;;;8.70;99.90;;;;;;5081138;28;20044;-81
2023/11/16 02:25:23;;;;;;;9.65;2.13;;;8.70;99.90;;;;;;5078751;28;20419;-82
2023/11/16 02:27:49;;;;;;;8.90;2.30;;;8.70;99.90;;;;;;5074963;28;20048;-82
2023/11/16 02:30:16;;;;;;;12.63;1.70;;;8.60;99.90;;;;;;5075741;28;20044;-81
2023/11/16 02:32:43;;;;;;;8.18;1.83;;;8.60;99.90;;;;;;5068429;28;20077;-82
2023/11/16 02:35:10;;;;;;;8.05;2.25;;;8.50;99.90;;;;;;5080897;28;20131;-81
2023/11/16 02:37:36;;;;;;;12.07;1.80;;;8.50;99.90;;;;;;5079051;28;20413;-82
2023/11/16 02:40:04;;;;;;;8.32;1.77;;;8.50;99.90;;;;;;5075322;28;20049;-81
2023/11/16 02:42:31;;;;;;;7.55;1.95;;;8.50;99.90;;;;;;5071955;28;20048;-80
2023/11/16 02:44:58;;;;;;;13.10;2.15;;;8.40;99.90;;;;;;5072557;28;20061;-81
2023/11/16 02:47:25;;;;;;;9.07;1.90;;;8.40;99.90;;;;;;5072905;28;20098;-82
2023/11/16 02:49:52;;;;;;;8.73;2.22;;;8.40;99.90;;;;;;5079167;28;20052;-82
2023/11/16 02:52:19;;;;;;;9.23;1.85;;;8.40;99.90;;;;;;5078412;28;20052;-81
2023/11/16 02:54:49;;;;;;;6.53;1.95;;;8.30;99.90;;;;;;5074192;28;20056;-81
2023/11/16 02:57:15;;;;;;;8.80;1.65;;;8.30;99.90;;;;;;5074110;28;20415;-81
2023/11/16 02:59:43;;;;;;;10.05;1.90;;;8.30;99.90;;;;;;5072229;28;20109;-81
2023/11/16 03:02:10;;;;;;;7.30;1.90;;;8.20;99.90;;;;;;5077359;28;20044;-81
2023/11/16 03:04:37;;;;;;;9.75;1.92;;;8.20;99.90;;;;;;5080014;28;20051;-81
2023/11/16 03:07:03;;;;;;;10.32;1.83;;;8.20;99.90;;;;;;5078593;28;20049;-81
2023/11/16 03:09:30;;;;;;;9.60;1.63;;;8.10;99.90;;;;;;5071425;28;20070;-79
2023/11/16 03:11:57;;;;;;;10.88;2.05;;;8.10;99.90;;;;;;5073582;28;20112;-81
2023/11/16 03:14:24;;;;;;;9.10;1.60;;;8.00;99.90;;;;;;5080743;28;20075;-79
2023/11/16 03:16:51;;;;;;;9.52;2.58;;;8.00;99.90;;;;;;5078018;28;20482;-81
2023/11/16 03:19:18;;;;;;;7.93;1.80;;;8.00;99.90;;;;;;5083100;28;20045;-81
2023/11/16 03:21:45;;;;;;;13.90;1.92;;;8.00;99.90;;;;;;5081927;28;20044;-81
2023/11/16 03:24:12;;;;;;;7.57;1.92;;;8.00;99.90;;;;;;5078887;28;20059;-82
2023/11/16 03:26:39;;;;;;;8.48;1.67;;;7.90;99.90;;;;;;5075704;28;20083;-81
2023/11/16 03:29:06;;;;;;;12.38;1.80;;;7.90;99.90;;;;;;5074469;28;20052;-82
2023/11/16 03:31:35;;;;;;;7.68;1.90;;;7.90;99.90;;;;;;5082439;28;20497;-81
2023/11/16 03:34:05;;;;;;;11.48;7.10;;;7.90;99.90;;;;;;5078554;28;20136;-82
2023/11/16 03:36:32;;;;;;;15.65;8.77;;;7.90;99.90;;;;;;5079904;28;20490;-82
2023/11/16 03:38:59;;;;;;;11.02;5.22;;;7.90;99.90;;;;;;5071764;28;20421;-81
2023/11/16 03:41:26;;;;;;;8.50;2.75;;;7.90;99.90;;;;;;5072261;28;20095;-80
2023/11/16 03:43:53;;;;;;;14.30;3.67;;;7.90;99.90;;;;;;5071374;28;20045;-82
2023/11/16 03:46:19;;;;;;;11.80;3.08;;;8.00;99.90;;;;;;5080528;28;20051;-79
2023/11/16 03:48:47;;;;;;;8.70;3.03;;;8.00;99.90;;;;;;5071526;28;20066;-81
2023/11/16 03:51:16;;;;;;;7.28;3.22;;;7.90;99.90;;;;;;5076632;28;20068;-80
2023/11/16 03:53:43;;;;;;;13.48;3.55;;;8.00;99.90;;;;;;5074186;28;20094;-82
2023/11/16 03:56:09;;;;;;;8.32;2.70;;;8.00;99.90;;;;;;5073121;28;20041;-82
2023/11/16 03:58:36;;;;;;;12.50;3.00;;;8.00;99.90;;;;;;5073521;28;20463;-81
2023/11/16 04:01:03;;;;;;;7.97;2.70;;;8.00;99.90;;;;;;5079470;28;20555;-82
2023/11/16 04:03:31;;;;;;;9.00;2.20;;;8.00;99.90;;;;;;5081468;28;20044;-80
2023/11/16 04:05:59;;;;;;;13.98;2.53;;;8.00;99.90;;;;;;5077685;28;20045;-81
2023/11/16 04:08:26;;;;;;;8.98;2.33;;;8.00;99.90;;;;;;5079262;28;20044;-81
2023/11/16 04:10:53;;;;;;;13.48;2.13;;;8.00;99.90;;;;;;5072619;28;20455;-81
2023/11/16 04:13:20;;;;;;;12.20;2.00;;;8.00;99.90;;;;;;5076666;28;20048;-82
2023/11/16 04:15:47;;;;;;;4.75;2.00;;;8.00;99.90;;;;;;5083440;28;20048;-82
2023/11/16 04:18:15;;;;;;;7.82;2.47;;;8.00;99.90;;;;;;5081891;28;20503;-80
2023/11/16 04:20:42;;;;;;;13.95;2.13;;;8.00;99.90;;;;;;5080474;28;20451;-79
2023/11/16 04:23:08;;;;;;;21.90;3.30;;;8.00;99.90;;;;;;5077377;28;20546;-80
2023/11/16 04:25:36;;;;;;;9.02;1.55;;;8.00;99.90;;;;;;5076131;28;20040;-82
2023/11/16 04:28:05;;;;;;;9.82;2.15;;;8.00;99.90;;;;;;5078548;28;20048;-82
2023/11/16 04:30:32;;;;;;;9.60;2.25;;;8.00;99.90;;;;;;5083275;28;20045;-81
2023/11/16 04:32:59;;;;;;;6.10;1.80;;;8.00;99.90;;;;;;5079201;28;20139;-81
2023/11/16 04:35:27;;;;;;;7.22;1.92;;;8.00;99.90;;;;;;5079645;28;20042;-82
2023/11/16 04:37:54;;;;;;;8.68;2.33;;;7.90;99.90;;;;;;5076683;28;20486;-82
2023/11/16 04:40:22;;;;;;;15.30;2.28;;;7.90;99.90;;;;;;5074957;28;20044;-81
2023/11/16 04:42:49;;;;;;;13.23;2.10;;;7.90;99.90;;;;;;5071649;28;20079;-81
2023/11/16 04:45:18;;;;;;;9.38;1.90;;;7.90;99.90;;;;;;5081112;28;20416;-82
2023/11/16 04:47:46;;;;;;;13.30;2.13;;;7.90;99.90;;;;;;5079710;28;20076;-81
2023/11/16 04:50:16;;;;;;;8.75;2.05;;;7.90;99.90;;;;;;5077842;28;20055;-81
2023/11/16 04:52:44;;;;;;;6.03;1.92;;;7.90;99.90;;;;;;5077159;28;20041;-82
2023/11/16 04:55:11;;;;;;;14.23;2.30;;;7.80;99.90;;;;;;5074998;28;20063;-81
2023/11/16 04:57:40;;;;;;;12.65;1.98;;;7.80;99.90;;;;;;5082140;28;20037;-81
2023/11/16 05:00:10;;;;;;;8.52;2.10;;;7.80;99.90;;;;;;5079324;28;20087;-82
2023/11/16 05:02:37;;;;;;;4.05;1.90;;;7.80;99.90;;;;;;5078712;28;20050;-82
2023/11/16 05:05:05;;;;;;;9.35;2.10;;;7.80;99.90;;;;;;5075084;28;20041;-81
2023/11/16 05:07:31;;;;;;;18.50;2.30;;;7.80;99.90;;;;;;5071430;28;20107;-80
2023/11/16 05:09:58;;;;;;;10.98;1.92;;;7.80;99.90;;;;;;5076964;28;20087;-82
2023/11/16 05:12:25;;;;;;;13.38;2.75;;;7.70;99.90;;;;;;5083393;28;20082;-82
2023/11/16 05:14:56;;;;;;;9.57;3.53;;;7.70;99.90;;;;;;5080334;28;20102;-79
2023/11/16 05:17:22;;;;;;;;;;;7.70;99.90;;;;;;5078496;28;20052;-81
2023/11/16 05:19:50;;;;;;;9.85;3.22;;;7.70;99.90;;;;;;5076968;28;19924;-81
2023/11/16 05:22:16;;;;;;;10.23;3.10;;;7.70;99.90;;;;;;5075452;28;20099;-79
2023/11/16 05:24:43;;;;;;;9.35;1.95;;;7.70;99.90;;;;;;5075072;28;20048;-81
2023/11/16 05:27:10;;;;;;;6.65;2.00;;;7.70;99.90;;;;;;5081545;28;20526;-82
2023/11/16 05:29:37;;;;;;;17.65;2.15;;;7.70;99.90;;;;;;5079902;28;20052;-80
2023/11/16 05:32:06;;;;;;;8.93;1.63;;;7.60;99.90;;;;;;5072351;28;20053;-79
2023/11/16 05:34:33;;;;;;;10.60;1.92;;;7.60;99.90;;;;;;5076259;28;20094;-81
2023/11/16 05:36:59;;;;;;;10.80;2.03;;;7.60;99.90;;;;;;5068540;28;20053;-81
2023/11/16 05:39:27;;;;;;;7.85;1.58;;;7.60;99.90;;;;;;5070178;28;20044;-81
2023/11/16 05:41:54;;;;;;;10.75;1.90;;;7.60;99.90;;;;;;5077609;28;20072;-82
2023/11/16 05:44:22;;;;;;;13.73;2.53;;;7.60;99.90;;;;;;5076712;28;20573;-80
2023/11/16 05:46:49;;;;;;;13.23;2.28;;;7.60;99.90;;;;;;5069985;28;20084;-81
2023/11/16 05:49:16;;;;;;;18.15;2.25;;;7.60;99.90;;;;;;5071996;28;20048;-80
2023/11/16 05:51:43;;;;;;;11.10;2.78;;;7.60;99.90;;;;;;5071361;28;20048;-80
2023/11/16 05:54:10;;;;;;;10.18;1.98;;;7.60;99.90;;;;;;5075274;28;20119;-81
2023/11/16 05:56:43;;;;;;;9.00;2.10;;;7.60;99.90;;;;;;5076128;28;20060;-80
2023/11/16 05:59:10;;;;;;;5.35;1.77;;;7.60;99.90;;;;;;5074586;28;20048;-79
2023/11/16 06:01:40;;;;;;;15.02;2.10;;;7.60;99.90;;;;;;5075388;28;20104;-81
2023/11/16 06:04:07;;;;;;;9.75;2.15;;;7.60;99.90;;;;;;5066270;28;20044;-80
2023/11/16 06:06:34;;;;;;;7.03;1.95;;;7.70;99.90;;;;;;5070895;28;20040;-81
2023/11/16 06:09:03;;;;;;;9.13;1.73;;;7.70;99.90;;;;;;5078689;28;20051;-82
2023/11/16 06:11:30;;;;;;;6.60;1.40;;;7.70;99.90;;;;;;5076664;28;20060;-81
2023/11/16 06:13:58;;;;;;;10.13;2.53;;;7.70;99.90;;;;;;5078424;28;20072;-81
2023/11/16 06:16:25;;;;;;;12.63;2.58;;;7.70;99.90;;;;;;5078511;28;20048;-81
2023/11/16 06:18:54;;;;;;;18.98;4.13;;;7.70;99.90;;;;;;5071226;28;20041;-81
2023/11/16 06:21:21;;;;;;;14.35;3.55;;;7.70;99.90;;;;;;5073207;28;20420;-81
2023/11/16 06:23:47;;;;;;;14.95;3.88;;;7.70;99.90;;;;;;5079545;28;20040;-81
2023/11/16 06:26:15;;;;;;;11.65;3.95;;;7.80;99.90;;;;;;5076888;28;20068;-82
2023/11/16 06:28:41;;;;;;;11.27;3.60;;;7.80;99.90;;;;;;5076829;28;20051;-80
2023/11/16 06:31:08;;;;;;;8.18;3.22;;;7.80;99.90;;;;;;5071825;28;20154;-81
2023/11/16 06:33:35;;;;;;;11.05;4.03;;;7.80;99.90;;;;;;5072707;28;20094;-80
2023/11/16 06:36:02;;;;;;;10.60;3.00;;;7.80;99.90;;;;;;5068295;28;20100;-80
2023/11/16 06:38:30;;;;;;;18.30;3.30;;;7.80;99.90;;;;;;5072320;28;20049;-79
2023/11/16 06:40:57;;;;;;;11.82;2.50;;;7.80;99.90;;;;;;5070532;28;20048;-80
2023/11/16 06:43:25;;;;;;;12.30;2.60;;;7.80;99.90;;;;;;5075391;28;20106;-82
2023/11/16 06:45:52;;;;;;;14.68;2.33;;;7.90;99.90;;;;;;5073461;28;20468;-79
2023/11/16 06:48:19;;;;;;;13.60;2.75;;;7.80;99.90;;;;;;5071230;28;20124;-82
2023/11/16 06:50:49;;;;;;;9.63;2.17;;;7.80;99.90;;;;;;5069109;28;20045;-81
2023/11/16 06:53:16;;;;;;;10.07;2.20;;;7.90;99.90;;;;;;5077734;28;20085;-81
2023/11/16 06:55:43;;;;;;;8.38;2.75;;;7.90;99.90;;;;;;5077175;28;20048;-81
2023/11/16 06:58:10;;;;;;;5.82;2.50;;;7.90;99.90;;;;;;5068625;28;20128;-81
2023/11/16 07:00:37;;;;;;;10.57;2.60;;;7.90;99.90;;;;;;5074387;28;20037;-80
2023/11/16 07:03:06;;;;;;;7.93;2.50;;;7.90;99.90;;;;;;5068644;28;20124;-81
2023/11/16 07:05:33;;;;;;;11.97;2.70;;;7.90;99.90;;;;;;5077388;28;20063;-82
2023/11/16 07:08:03;;;;;;;10.73;2.60;;;8.00;99.90;;;;;;5079566;28;20344;-82
2023/11/16 07:10:30;;;;;;;7.28;2.67;;;8.00;99.90;;;;;;5079236;28;20040;-82
2023/11/16 07:13:01;;;;;;;15.32;2.92;;;8.00;99.90;;;;;;5077147;28;20055;-83
2023/11/16 07:15:32;;;;;;;14.90;3.22;;;8.00;99.90;;;;;;5074326;28;20049;-81
2023/11/16 07:18:01;;;;;;;20.23;3.05;;;8.10;99.90;;;;;;5071107;28;20041;-82
2023/11/16 07:20:28;;;;;;;4.60;2.40;;;8.10;99.90;;;;;;5081496;28;20049;-81
2023/11/16 07:22:55;;;;;;;16.33;3.25;;;8.20;99.90;;;;;;5078074;28;20458;-80
2023/11/16 07:25:24;;;;;;;13.00;2.90;;;8.20;99.90;;;;;;5073450;28;20497;-81
2023/11/16 07:27:50;;;;;;;11.05;2.85;;;8.20;99.90;;;;;;5069863;28;20112;-81
2023/11/16 07:30:17;;;;;;;11.25;3.33;;;8.20;99.90;;;;;;5068142;28;20049;-80
2023/11/16 07:32:45;;;;;;;7.40;3.50;;;8.30;99.90;;;;;;5070152;28;20051;-82
2023/11/16 07:35:19;;;;;;;15.60;3.90;;;8.30;99.90;;;;;;5067497;28;20174;-81
2023/11/16 07:37:47;;;;;;;17.55;3.85;;;8.40;99.90;;;;;;5077386;28;20048;-82
2023/11/16 07:40:15;;;;;;;19.20;6.10;;;8.40;99.90;;;;;;5075365;28;20052;-82
2023/11/16 07:42:43;;;;;;;18.67;8.18;;;8.40;99.90;;;;;;5076314;28;20439;-82
2023/11/16 07:45:15;;;;;;;11.30;4.35;;;8.40;99.90;;;;;;5070154;28;20048;-82
2023/11/16 07:47:44;;;;;;;16.25;4.88;;;8.50;99.90;;;;;;5074213;28;20054;-80
2023/11/16 07:50:12;;;;;;;18.50;6.20;;;8.50;99.90;;;;;;5081126;28;20087;-81
2023/11/16 07:52:44;;;;;;;27.80;10.75;;;8.60;99.90;;;;;;5090251;28;20052;-82
2023/11/16 07:55:15;;;;;;;15.50;7.85;;;8.60;99.90;;;;;;5087035;28;20052;-81
2023/11/16 07:57:47;;;;;;;13.77;3.88;;;8.60;99.90;;;;;;5083076;28;20419;-80
2023/11/16 08:00:31;;;;;;;12.20;3.78;;;8.70;99.90;;;;;;5073092;28;20109;-82
2023/11/16 08:05:46;;;;;;;17.30;5.05;;;8.70;99.90;;;;;;5082743;28;20096;-82
2023/11/16 08:08:15;;;;;;;20.92;3.95;;;8.80;99.90;;;;;;5081180;28;20048;-82
2023/11/16 08:10:42;;;;;;;11.75;4.13;;;8.80;99.90;;;;;;5082487;28;20491;-80
2023/11/16 08:13:10;;;;;;;12.57;3.90;;;8.90;99.90;;;;;;5070229;28;20571;-83
2023/11/16 08:15:41;;;;;;;15.18;4.82;;;8.90;99.90;;;;;;5078725;28;20108;-81
2023/11/16 08:18:12;;;;;;;8.13;4.40;;;8.90;99.90;;;;;;5077964;28;20131;-82
2023/11/16 08:20:39;;;;;;;17.25;6.20;;;9.00;99.90;;;;;;5078643;28;20090;-82
2023/11/16 08:23:06;;;;;;;13.45;6.60;;;9.00;99.90;;;;;;5076187;28;20063;-81
2023/11/16 08:25:33;;;;;;;17.67;7.57;;;9.10;99.90;;;;;;5080620;28;20084;-82
2023/11/16 08:28:01;;;;;;;18.50;8.07;;;9.10;99.90;;;;;;5075853;28;20044;-82
2023/11/16 08:30:28;;;;;;;15.23;7.60;;;9.20;99.90;;;;;;5080415;28;20523;-82
2023/11/16 08:32:55;;;;;;;20.77;8.57;;;9.20;99.90;;;;;;5083071;28;20087;-81
2023/11/16 08:35:23;;;;;;;16.77;7.00;;;9.20;99.90;;;;;;5081022;28;20080;-82
2023/11/16 08:37:53;;;;;;;15.30;5.15;;;9.20;99.90;;;;;;5081032;28;20428;-81
2023/11/16 08:40:23;;;;;;;14.07;5.28;;;9.30;99.90;;;;;;5074074;28;20409;-80
2023/11/16 08:42:51;;;;;;;9.02;3.08;;;9.30;99.90;;;;;;5075242;28;20048;-81
2023/11/16 08:45:24;;;;;;;6.28;2.15;;;9.30;99.90;;;;;;5081137;28;20040;-82
2023/11/16 08:47:56;;;;;;;12.77;2.60;;;9.40;99.90;;;;;;5081540;28;20045;-83
2023/11/16 08:50:23;;;;;;;5.32;1.73;;;9.40;99.90;;;;;;5077798;28;20124;-82
2023/11/16 08:52:51;;;;;;;10.82;2.22;;;9.50;99.90;;;;;;5080956;28;20570;-82
2023/11/16 08:55:21;;;;;;;9.00;1.67;;;9.50;99.90;;;;;;5075572;28;20149;-81
2023/11/16 08:57:50;;;;;;;14.40;1.90;;;9.50;99.90;;;;;;5074136;28;20048;-82
2023/11/16 09:00:37;;;;;;;6.22;1.70;;;9.60;99.90;;;;;;5080128;28;20045;-82
2023/11/16 09:03:08;;;;;;;13.20;1.95;;;9.60;99.90;;;;;;5075775;28;20041;-81
2023/11/16 09:05:39;;;;;;;7.28;1.90;;;9.70;99.90;;;;;;5080891;28;20056;-82
2023/11/16 09:08:10;;;;;;;6.25;1.60;;;9.70;99.90;;;;;;5079244;28;20319;-82
2023/11/16 09:10:37;;;;;;;5.25;1.75;;;9.80;99.90;;;;;;5078693;28;20080;-82
2023/11/16 09:13:07;;;;;;;7.68;1.45;;;9.80;99.90;;;;;;5076489;28;20098;-81
2023/11/16 09:15:34;;;;;;;7.35;1.33;;;9.90;99.90;;;;;;5082854;28;20521;-82
2023/11/16 09:18:04;;;;;;;6.68;1.27;;;9.90;99.90;;;;;;5082544;28;20049;-79
2023/11/16 09:20:33;;;;;;;6.78;1.60;;;9.90;99.90;;;;;;5073032;28;20048;-81
2023/11/16 09:23:00;;;;;;;6.85;1.42;;;10.00;99.90;;;;;;5077635;28;20070;-80
2023/11/16 09:25:29;;;;;;;8.50;1.17;;;10.00;99.90;;;;;;5074220;28;20055;-82
2023/11/16 09:27:58;;;;;;;10.48;1.95;;;10.00;99.90;;;;;;5070643;28;20076;-81
2023/11/16 09:30:27;;;;;;;11.13;2.40;;;10.00;99.90;;;;;;5078503;28;20040;-81
2023/11/16 09:32:55;;;;;;;7.15;1.80;;;10.10;99.90;;;;;;5077642;28;20102;-82
2023/11/16 09:35:23;;;;;;;3.92;1.52;;;10.10;99.90;;;;;;5072130;28;20051;-81
2023/11/16 09:37:52;;;;;;;7.93;1.60;;;10.20;99.90;;;;;;5076307;28;20044;-82
2023/11/16 09:40:21;;;;;;;6.05;1.35;;;10.20;99.90;;;;;;5066426;28;20412;-80
2023/11/16 09:43:00;;;;;;;6.88;1.48;;;10.20;99.90;;;;;;5082361;28;20052;-83
2023/11/16 09:45:29;;;;;;;6.35;1.55;;;10.30;99.90;;;;;;5071805;28;20581;-82
2023/11/16 09:48:10;;;;;;;7.25;1.80;;;10.30;99.90;;;;;;5077682;28;20488;-81
2023/11/16 09:50:44;;;;;;;4.85;1.15;;;10.40;99.90;;;;;;5073537;28;20137;-80
2023/11/16 09:53:22;;;;;;;5.50;1.20;;;10.50;99.90;;;;;;5072920;28;20040;-82
2023/11/16 09:55:56;;;;;;;8.90;1.42;;;10.50;99.90;;;;;;5071400;28;20048;-81
2023/11/16 09:58:25;;;;;;;6.85;0.80;;;10.60;99.90;;;;;;5078637;28;20045;-82
2023/11/16 10:00:57;;;;;;;4.20;0.98;;;10.70;99.90;;;;;;5079377;28;20071;-83
2023/11/16 10:03:30;;;;;;;2.67;1.27;;;10.70;99.90;;;;;;5076041;28;20049;-81
2023/11/16 10:05:59;;;;;;;6.25;1.40;;;10.80;99.90;;;;;;5074164;28;20067;-81
2023/11/16 10:08:27;;;;;;;4.35;1.10;;;10.90;99.90;;;;;;5075912;28;20045;-81
2023/11/16 10:11:04;;;;;;;4.25;0.93;;;10.90;99.90;;;;;;5078262;28;20040;-82
2023/11/16 10:13:32;;;;;;;6.88;1.30;;;10.90;99.90;;;;;;5072363;28;20055;-81
2023/11/16 10:16:03;;;;;;;5.85;1.10;;;10.90;99.90;;;;;;5079643;28;20069;-83
2023/11/16 10:18:33;;;;;;;5.60;1.17;;;10.90;99.90;;;;;;5073133;28;20102;-82
2023/11/16 10:21:04;;;;;;;7.15;1.40;;;10.90;99.90;;;;;;5075174;28;20040;-81
2023/11/16 10:23:34;;;;;;;5.10;1.00;;;11.00;99.90;;;;;;5069595;28;20041;-82
2023/11/16 10:26:05;;;;;;;5.47;0.73;;;11.00;99.90;;;;;;5081106;28;20044;-82
2023/11/16 10:28:34;;;;;;;4.43;1.00;;;11.00;99.90;;;;;;5070917;28;20401;-82
2023/11/16 10:31:01;;;;;;;8.82;3.15;;;11.10;99.90;;;;;;5078785;28;20044;-81
2023/11/16 10:33:29;;;;;;;4.40;1.05;;;11.10;99.90;;;;;;5074721;28;20071;-81
2023/11/16 10:35:57;;;;;;;3.45;0.90;;;11.10;99.90;;;;;;5071306;28;20112;-81
2023/11/16 10:38:28;;;;;;;3.63;1.08;;;11.20;99.90;;;;;;5073846;28;20041;-83
2023/11/16 10:40:57;;;;;;;5.07;1.45;;;11.20;99.90;;;;;;5082498;28;20043;-82
2023/11/16 10:43:27;;;;;;;9.30;2.83;;;11.20;99.90;;;;;;5080630;28;20649;-82
2023/11/16 10:46:00;;;;;;;4.70;2.88;;;11.20;99.90;;;;;;5080148;28;20054;-82
2023/11/16 10:48:28;;;;;;;3.00;1.27;;;11.30;99.90;;;;;;5076534;28;20140;-81
2023/11/16 10:51:00;;;;;;;6.10;1.60;;;11.30;99.90;;;;;;5073516;28;20053;-81
2023/11/16 10:53:32;;;;;;;4.13;1.42;;;11.40;99.90;;;;;;5074852;28;20049;-82
2023/11/16 10:56:01;;;;;;;2.30;1.05;;;11.40;99.90;;;;;;5081714;28;20049;-80
2023/11/16 10:58:29;;;;;;;2.00;1.30;;;11.50;99.90;;;;;;5078953;28;20049;-82
2023/11/16 11:00:57;;;;;;;3.53;1.40;;;11.60;99.90;;;;;;5078559;28;20139;-82
2023/11/16 11:03:24;;;;;;;10.52;2.58;;;11.70;99.90;;;;;;5072095;28;20068;-82
2023/11/16 11:05:52;;;;;;;6.38;3.33;;;11.80;99.90;;;;;;5074999;28;20044;-82
2023/11/16 11:08:21;;;;;;;3.30;1.13;;;11.90;99.90;;;;;;5074609;28;20041;-82
2023/11/16 11:10:52;;;;;;;1.17;0.90;;;12.10;99.90;;;;;;5081952;28;20074;-82
2023/11/16 11:13:26;;;;;;;6.22;3.15;;;12.20;99.90;;;;;;5076029;28;20044;-81
2023/11/16 11:15:55;;;;;;;0.85;0.50;;;12.30;99.90;;;;;;5078393;28;20047;-83
2023/11/16 11:18:26;;;;;;;1.13;0.40;;;12.40;99.90;;;;;;5076427;28;20051;-83
2023/11/16 11:21:07;;;;;;;1.10;0.40;;;12.50;99.90;;;;;;5074040;28;20045;-82
2023/11/16 11:23:39;;;;;;;1.05;0.45;;;12.50;99.90;;;;;;5083002;28;20048;-82
2023/11/16 11:26:07;;;;;;;1.13;0.40;;;12.50;99.90;;;;;;5082283;28;20455;-81
2023/11/16 11:28:35;;;;;;;2.50;0.30;;;12.50;99.90;;;;;;5072892;28;20064;-82
2023/11/16 11:31:05;;;;;;;0.90;0.30;;;12.50;99.90;;;;;;5080991;28;20048;-82
2023/11/16 11:33:35;;;;;;;0.25;0.25;;;12.60;99.90;;;;;;5073055;28;20633;-82
2023/11/16 11:36:09;;;;;;;0.95;0.40;;;12.60;99.90;;;;;;5081551;28;20109;-82
2023/11/16 11:38:42;;;;;;;1.08;0.30;;;12.60;99.90;;;;;;5075308;28;20049;-83
2023/11/16 11:41:12;;;;;;;0.57;0.28;;;12.60;99.90;;;;;;5080899;28;20511;-82
2023/11/16 11:43:40;;;;;;;1.10;0.57;;;12.60;99.90;;;;;;5073452;28;20050;-83
2023/11/16 11:46:17;;;;;;;0.68;0.32;;;12.50;99.90;;;;;;5079048;28;20044;-82
2023/11/16 11:48:46;;;;;;;0.68;0.45;;;12.50;99.90;;;;;;5076602;28;20052;-83
2023/11/16 11:51:16;;;;;;;2.22;0.77;;;12.40;99.90;;;;;;5080219;28;20058;-82
2023/11/16 11:53:45;;;;;;;1.20;0.60;;;12.30;99.90;;;;;;5080702;28;20049;-83
2023/11/16 11:56:15;;;;;;;1.45;0.75;;;12.30;99.90;;;;;;5076111;28;20125;-83
2023/11/16 11:58:42;;;;;;;1.58;0.60;;;12.20;99.90;;;;;;5080927;28;20079;-81
2023/11/16 12:01:11;;;;;;;2.28;0.70;;;12.10;99.90;;;;;;5079923;28;20055;-82
2023/11/16 12:03:51;;;;;;;1.70;0.82;;;12.10;99.90;;;;;;5074423;28;20443;-82
2023/11/16 12:06:27;;;;;;;1.30;0.93;;;12.10;99.90;;;;;;5076852;28;20045;-81
2023/11/16 12:08:55;;;;;;;2.33;0.60;;;12.00;99.90;;;;;;5077650;28;20049;-81
2023/11/16 12:11:25;;;;;;;1.48;0.52;;;12.00;99.90;;;;;;5080181;28;20102;-82
2023/11/16 12:13:54;;;;;;;1.58;0.60;;;12.10;99.90;;;;;;5079714;28;20048;-82
2023/11/16 12:16:23;;;;;;;4.32;1.52;;;12.10;99.90;;;;;;5074848;28;20053;-82
2023/11/16 12:18:54;;;;;;;2.15;1.20;;;12.10;99.90;;;;;;5088827;28;20071;-83
2023/11/16 12:21:22;;;;;;;1.60;1.02;;;12.00;99.90;;;;;;5082330;28;20059;-81
2023/11/16 12:23:52;;;;;;;2.95;0.80;;;12.00;99.90;;;;;;5085841;28;20084;-80
2023/11/16 12:26:27;;;;;;;2.97;0.97;;;12.00;99.90;;;;;;5082795;28;20053;-82
2023/11/16 12:28:57;;;;;;;3.95;1.20;;;12.00;99.90;;;;;;5079999;28;20048;-81
2023/11/16 12:31:27;;;;;;;1.85;1.05;;;12.00;99.90;;;;;;5076845;28;20071;-82
2023/11/16 12:33:55;;;;;;;1.35;0.70;;;12.00;99.90;;;;;;5080961;28;20056;-81
2023/11/16 12:36:25;;;;;;;1.05;0.70;;;12.00;99.90;;;;;;5076257;28;20178;-81
2023/11/16 12:38:53;;;;;;;1.88;0.80;;;11.90;99.90;;;;;;5072022;28;20068;-82
2023/11/16 12:41:22;;;;;;;1.98;1.00;;;11.80;99.90;;;;;;5047216;22;20064;-79
2023/11/16 12:43:52;;;;;;;1.13;0.70;;;11.70;99.90;;;;;;5011328;28;20054;-80
2023/11/16 12:46:19;;;;;;;2.45;0.90;;;11.70;99.90;;;;;;5013598;28;20532;-80
2023/11/16 12:48:46;;;;;;;4.03;1.00;;;11.60;99.90;;;;;;5016301;28;20041;-78
2023/11/16 12:51:19;;;;;;;2.90;1.25;;;11.60;99.90;;;;;;5001707;28;20081;-78
2023/11/16 12:53:47;;;;;;;1.58;1.10;;;11.60;99.90;;;;;;4989268;28;20109;-78
2023/11/16 12:56:15;;;;;;;2.28;0.90;;;11.60;99.90;;;;;;4994914;28;20050;-78
2023/11/16 12:58:42;;;;;;;3.40;0.85;;;11.60;99.90;;;;;;5008239;28;20050;-78
2023/11/16 13:01:13;;;;;;;2.28;1.23;;;11.60;99.90;;;;;;4995210;28;20070;-78